Time;durP1;ratioP1;P1;durP2;ratioP2;P2;SDS_P1;SDS_P2;PMS_P1;PMS_P2;Temp;Humidity;BMP_temperature;BMP_pressure;BME280_temperature;BME280_humidity;BME280_pressure;Samples;Min_cycle;Max_cycle;Signal;HPM_P1;HPM_P2
2022/05/30 00:06:07;;;;;;;7.80;4.20;;;;;;;10.35;68.02;98053.52;433069;1270;97509;-42
2022/05/30 00:16:17;;;;;;;5.80;3.40;;;;;;;10.22;68.02;98055.27;432951;1270;111098;-41
2022/05/30 00:26:25;;;;;;;5.50;3.40;;;;;;;10.24;68.56;98062.02;432996;1271;108819;-42
2022/05/30 00:36:32;;;;;;;7.50;3.80;;;;;;;10.29;68.84;98065.95;432939;1270;98003;-44
2022/05/30 00:46:40;;;;;;;11.20;3.50;;;;;;;10.39;69.23;98066.52;433145;1270;109014;-40
2022/05/30 00:56:48;;;;;;;9.80;4.80;;;;;;;10.39;69.44;98066.15;433087;1269;96651;-43
2022/05/30 01:06:56;;;;;;;11.90;5.50;;;;;;;10.28;69.72;98060.17;433303;1270;111209;-42
2022/05/30 01:17:05;;;;;;;8.10;4.70;;;;;;;10.12;69.89;98049.53;434175;1258;109176;-41
2022/05/30 01:27:18;;;;;;;9.70;4.50;;;;;;;10.08;70.41;98046.46;433791;1267;97902;-43
2022/05/30 01:37:26;;;;;;;9.20;4.10;;;;;;;10.07;70.38;98038.11;433575;1268;109175;-41
2022/05/30 01:57:40;;;;;;;6.60;3.70;;;;;;;9.90;70.97;98003.19;433702;1265;111019;-41
2022/05/30 02:07:47;;;;;;;7.20;3.60;;;;;;;9.74;71.52;97984.52;433467;1268;109225;-42
2022/05/30 02:17:54;;;;;;;7.80;3.40;;;;;;;9.61;72.07;97969.18;433512;1268;98154;-41
2022/05/30 02:28:02;;;;;;;4.20;3.20;;;;;;;9.47;72.83;97964.27;433569;1268;108876;-41
2022/05/30 02:38:09;;;;;;;5.10;3.50;;;;;;;9.42;73.14;97967.66;433507;1268;97941;-41
2022/05/30 02:48:17;;;;;;;6.10;3.80;;;;;;;9.46;73.28;97977.44;433729;1267;111031;-43
2022/05/30 02:58:24;;;;;;;6.70;3.60;;;;;;;9.55;73.55;97985.09;433521;1268;108812;-43
2022/05/30 03:08:32;;;;;;;5.30;3.70;;;;;;;9.65;73.72;97988.98;433524;1268;98520;-41
2022/05/30 03:18:38;;;;;;;5.30;3.10;;;;;;;9.65;73.57;97983.60;433617;1268;108223;-43
2022/05/30 03:28:46;;;;;;;7.80;3.70;;;;;;;9.54;73.65;97981.21;433798;1268;97937;-41
2022/05/30 03:38:53;;;;;;;7.70;5.70;;;;;;;9.40;74.04;97988.14;433542;1268;110998;-43
2022/05/30 03:49:01;;;;;;;8.40;4.30;;;;;;;9.37;74.17;97997.23;433553;1268;109173;-42
2022/05/30 03:59:08;;;;;;;10.90;6.60;;;;;;;9.41;74.34;98003.52;433262;1268;98594;-42
2022/05/30 04:09:16;;;;;;;6.60;4.20;;;;;;;9.49;74.67;98000.93;433278;1268;108762;-41
2022/05/30 04:19:23;;;;;;;7.60;5.60;;;;;;;9.53;74.62;97992.55;433446;1268;98456;-42
2022/05/30 04:29:31;;;;;;;20.60;10.80;;;;;;;9.57;74.61;97978.31;433541;1268;111075;-40
2022/05/30 04:39:38;;;;;;;10.30;8.00;;;;;;;9.52;74.80;97964.98;432982;1268;108795;-40
2022/05/30 04:49:48;;;;;;;7.60;5.70;;;;;;;9.55;75.01;97970.30;433444;1268;97875;-43
2022/05/30 04:59:56;;;;;;;6.80;4.90;;;;;;;9.61;75.16;97979.27;433611;1267;108730;-41
2022/05/30 05:10:26;;;;;;;8.90;5.80;;;;;;;9.79;75.11;97982.15;433573;1268;96650;-43
2022/05/30 05:20:37;;;;;;;9.20;6.60;;;;;;;9.82;75.32;97980.93;433944;1267;111534;-41
2022/05/30 05:30:44;;;;;;;4.30;3.80;;;;;;;9.75;75.07;97984.27;433559;1268;108963;-43
2022/05/30 05:50:59;;;;;;;9.70;7.50;;;;;;;9.92;75.58;97991.80;433735;1268;111005;-41
2022/05/30 06:01:07;;;;;;;7.50;4.90;;;;;;;10.03;75.53;97998.68;433451;1267;109168;-41
2022/05/30 06:11:15;;;;;;;14.20;7.40;;;;;;;10.06;75.76;98000.36;433298;1270;98544;-44
2022/05/30 06:21:24;;;;;;;8.40;4.80;;;;;;;10.03;75.80;98009.36;433612;1267;111492;-40
2022/05/30 06:31:33;;;;;;;8.60;4.40;;;;;;;10.01;75.67;98013.77;433210;1270;108621;-40
2022/05/30 06:41:41;;;;;;;3.20;2.90;;;;;;;10.14;75.72;98016.48;433070;1269;97520;-39
2022/05/30 06:51:49;;;;;;;9.50;3.50;;;;;;;10.19;75.71;98022.06;433546;1266;111197;-41
2022/05/30 07:01:56;;;;;;;9.00;4.30;;;;;;;10.28;75.82;98017.27;432942;1271;108992;-41
2022/05/30 07:12:03;;;;;;;7.70;4.10;;;;;;;10.33;75.78;98023.57;433530;1268;97872;-44
2022/05/30 07:22:10;;;;;;;11.40;7.10;;;;;;;10.27;75.84;98027.83;433535;1268;111079;-39
2022/05/30 07:32:17;;;;;;;5.90;4.00;;;;;;;10.26;75.88;98033.67;433396;1268;108453;-40
2022/05/30 07:42:25;;;;;;;4.10;2.90;;;;;;;10.32;75.88;98046.70;433101;1270;97907;-41
2022/05/30 07:52:33;;;;;;;7.00;4.30;;;;;;;10.36;75.90;98052.05;433324;1267;109035;-42
2022/05/30 08:02:40;;;;;;;10.30;5.10;;;;;;;10.47;76.05;98065.17;433481;1267;96934;-39
2022/05/30 08:12:53;;;;;;;6.00;5.20;;;;;;;10.48;76.28;98071.05;433674;1267;111088;-43
2022/05/30 08:23:01;;;;;;;5.90;4.20;;;;;;;10.53;76.29;98078.46;433709;1267;107827;-36
2022/05/30 08:43:24;;;;;;;4.70;3.50;;;;;;;10.62;75.99;98103.16;433773;1267;111508;-40
2022/05/30 08:53:51;;;;;;;9.70;3.90;;;;;;;10.78;75.99;98113.67;433613;1268;108847;-40
2022/05/30 09:14:16;;;;;;;12.40;8.00;;;;;;;10.87;76.04;98134.05;433255;1270;110974;-43
2022/05/30 09:24:23;;;;;;;9.80;5.60;;;;;;;11.20;75.67;98138.41;432695;1270;685937;-43
2022/05/30 09:34:28;;;;;;;21.60;10.30;;;;;;;11.75;75.60;98141.56;433234;1270;97955;-39
2022/05/30 09:44:39;;;;;;;5.40;4.30;;;;;;;12.12;75.20;98143.48;433653;1270;111113;-43
2022/05/30 09:54:47;;;;;;;12.10;6.20;;;;;;;12.21;74.77;98151.19;433266;1270;107963;-40
2022/05/30 10:04:55;;;;;;;14.40;6.80;;;;;;;12.47;74.37;98159.15;433545;1270;96696;-43
2022/05/30 10:35:50;;;;;;;9.20;4.00;;;;;;;13.84;73.17;98167.83;433603;1267;97933;-41
2022/05/30 10:45:59;;;;;;;7.80;3.30;;;;;;;14.20;72.01;98165.73;433632;1267;109221;-41
2022/05/30 10:56:11;;;;;;;4.30;3.00;;;;;;;14.42;71.37;98169.77;433666;1267;97917;-41
2022/05/30 11:06:23;;;;;;;3.10;2.70;;;;;;;14.43;70.80;98170.84;433503;1269;110002;-44
2022/05/30 11:26:53;;;;;;;4.40;3.40;;;;;;;14.83;70.19;98173.13;433554;1267;96611;-43
2022/05/30 11:37:12;;;;;;;4.50;2.10;;;;;;;15.27;69.44;98173.63;433713;1267;109966;-41
2022/05/30 11:47:27;;;;;;;4.00;2.80;;;;;;;14.86;68.73;98179.55;433579;1267;109017;-41
2022/05/30 11:57:34;;;;;;;4.40;3.10;;;;;;;14.49;68.64;98175.32;433686;1267;97472;-40
2022/05/30 12:08:16;;;;;;;5.50;2.40;;;;;;;14.98;68.28;98166.50;433768;1267;110945;-40
2022/05/30 12:29:31;;;;;;;2.40;2.20;;;;;;;14.86;66.76;98168.88;433675;1267;98011;-43
2022/05/30 12:39:40;;;;;;;2.40;2.20;;;;;;;14.86;66.81;98171.84;433738;1267;110985;-43
2022/05/30 12:49:50;;;;;;;2.20;1.60;;;;;;;15.16;66.59;98174.07;433627;1267;108830;-41
2022/05/30 13:00:14;;;;;;;5.40;1.50;;;;;;;15.94;66.00;98174.11;433814;1267;98015;-41
2022/05/30 13:10:20;;;;;;;3.50;1.80;;;;;;;16.23;65.22;98173.09;433708;1268;111051;-40
2022/05/30 13:20:25;;;;;;;2.60;1.90;;;;;;;16.40;64.64;98171.59;433725;1266;108821;-41
2022/05/30 13:30:32;;;;;;;1.70;1.60;;;;;;;16.33;63.88;98166.20;433851;1267;97894;-40
2022/05/30 13:40:41;;;;;;;1.60;1.50;;;;;;;16.16;63.32;98170.00;433562;1268;110701;-43
2022/05/30 13:50:48;;;;;;;6.90;1.90;;;;;;;16.36;63.16;98170.55;433742;1267;106754;-41
2022/05/30 14:00:55;;;;;;;;;;;;;;;16.64;62.51;98169.48;433394;1270;97939;-40
2022/05/30 14:11:08;;;;;;;2.60;2.40;;;;;;;16.39;61.34;98175.27;433753;1267;110985;-40
2022/05/30 14:21:14;;;;;;;2.30;2.00;;;;;;;16.07;61.52;98177.20;433632;1267;108841;-41
2022/05/30 14:31:23;;;;;;;1.40;1.30;;;;;;;16.19;61.00;98178.62;433559;1267;96659;-40
2022/05/30 14:41:35;;;;;;;2.50;2.20;;;;;;;16.08;60.93;98185.30;433979;1267;111210;-40
2022/05/30 14:51:51;;;;;;;2.50;1.80;;;;;;;15.89;60.84;98200.35;433662;1267;108861;-40
2022/05/30 15:02:00;;;;;;;1.60;1.40;;;;;;;15.70;60.82;98209.70;433609;1267;97929;-42
2022/05/30 15:12:06;;;;;;;4.40;2.10;;;;;;;15.72;61.09;98213.42;433726;1267;110935;-41
2022/05/30 15:22:18;;;;;;;5.20;3.00;;;;;;;15.80;61.16;98220.58;433629;1267;108013;-41
2022/05/30 15:32:33;;;;;;;2.60;2.40;;;;;;;16.01;61.12;98226.19;433454;1267;98444;-41
2022/05/30 15:42:41;;;;;;;2.40;2.20;;;;;;;15.93;60.64;98231.51;433494;1267;111021;-41
2022/05/30 16:03:19;;;;;;;2.20;2.00;;;;;;;15.32;60.34;98222.84;433700;1267;97924;-43
2022/05/30 16:13:28;;;;;;;2.40;2.20;;;;;;;15.27;60.39;98233.18;433617;1267;110889;-40
2022/05/30 16:23:36;;;;;;;2.50;2.40;;;;;;;15.16;60.23;98234.55;433532;1267;109348;-41
2022/05/30 16:33:43;;;;;;;2.80;2.30;;;;;;;15.09;60.27;98236.39;433834;1267;96920;-42
2022/05/30 16:43:50;;;;;;;2.80;2.20;;;;;;;14.98;60.16;98246.48;433433;1267;108671;-41
2022/05/30 16:53:57;;;;;;;3.60;2.70;;;;;;;14.94;60.26;98253.73;433778;1267;97874;-40
2022/05/30 17:04:04;;;;;;;5.50;2.60;;;;;;;14.78;60.27;98265.58;433663;1267;110929;-43
2022/05/30 17:14:12;;;;;;;2.50;2.30;;;;;;;14.59;60.33;98272.91;433719;1267;108807;-40
2022/05/30 17:24:19;;;;;;;3.00;2.20;;;;;;;14.36;60.32;98268.06;433610;1267;97912;-42
2022/05/30 17:34:27;;;;;;;5.60;3.10;;;;;;;14.20;60.48;98271.36;433663;1268;111148;-40
2022/05/30 17:44:34;;;;;;;3.40;2.30;;;;;;;14.05;60.77;98290.83;433480;1267;110311;-40
2022/05/30 17:54:42;;;;;;;6.50;3.70;;;;;;;13.89;60.95;98297.98;433690;1267;97903;-40
2022/05/30 18:04:50;;;;;;;5.50;4.10;;;;;;;13.66;61.27;98316.04;433591;1268;109172;-40
2022/05/30 18:15:02;;;;;;;9.30;5.00;;;;;;;13.55;61.72;98316.73;433844;1268;107762;-41
2022/05/30 18:45:20;;;;;;;14.40;9.20;;;;;;;12.91;63.76;98345.60;433617;1267;97935;-40
2022/05/30 18:55:27;;;;;;;19.60;8.20;;;;;;;12.25;64.09;98374.48;433510;1268;111025;-40
2022/05/30 19:05:35;;;;;;;15.30;6.80;;;;;;;11.72;64.75;98380.95;433466;1268;108835;-41
2022/05/30 19:26:10;;;;;;;13.80;5.70;;;;;;;11.23;66.21;98408.30;433559;1268;111075;-41
2022/05/30 19:36:18;;;;;;;16.00;7.60;;;;;;;11.10;66.70;98415.23;433496;1267;108772;-41
2022/05/30 19:46:33;;;;;;;15.90;8.80;;;;;;;10.65;66.88;98415.70;433539;1267;97789;-41
2022/05/30 19:56:42;;;;;;;16.50;9.30;;;;;;;10.28;67.72;98419.48;433586;1267;108957;-43
2022/05/30 20:06:50;;;;;;;12.70;7.30;;;;;;;10.17;68.25;98423.26;433630;1267;97474;-41
2022/05/30 20:16:57;;;;;;;10.00;7.50;;;;;;;10.16;68.89;98424.98;433673;1267;111132;-40
2022/05/30 20:27:03;;;;;;;11.00;6.70;;;;;;;10.01;68.81;98435.68;433636;1267;108826;-41
2022/05/30 20:37:15;;;;;;;12.70;10.20;;;;;;;9.63;69.06;98442.11;433566;1267;96712;-40
2022/05/30 20:47:27;;;;;;;16.20;12.30;;;;;;;9.39;69.65;98444.78;433053;1270;108824;-41
2022/05/30 20:57:38;;;;;;;23.00;15.40;;;;;;;9.35;70.05;98463.06;433674;1267;98003;-41
2022/05/30 21:07:46;;;;;;;29.90;19.10;;;;;;;9.28;70.34;98482.52;433617;1267;109299;-43
2022/05/30 21:17:58;;;;;;;37.70;22.30;;;;;;;9.22;70.72;98495.77;433490;1267;108483;-42
2022/05/30 21:28:07;;;;;;;38.50;27.10;;;;;;;9.32;71.36;98488.85;431151;1267;3561936;-41
2022/05/30 21:38:12;;;;;;;39.10;27.40;;;;;;;9.33;71.36;98487.80;433898;1268;107680;-42
2022/05/30 21:48:20;;;;;;;50.80;35.10;;;;;;;9.20;71.65;98487.52;433751;1268;97910;-40
2022/05/30 21:58:27;;;;;;;47.50;33.40;;;;;;;9.10;71.92;98498.34;433642;1268;111110;-40
2022/05/30 22:08:37;;;;;;;35.40;25.10;;;;;;;8.85;71.94;98519.73;433658;1268;108787;-40
2022/05/30 22:18:44;;;;;;;37.60;24.20;;;;;;;8.55;72.02;98522.11;433773;1268;97932;-41
2022/05/30 22:38:59;;;;;;;33.00;23.90;;;;;;;8.20;72.39;98523.34;433564;1268;110033;-42
2022/05/30 22:49:07;;;;;;;42.50;26.20;;;;;;;8.32;73.06;98521.19;433623;1268;97498;-40
2022/05/30 22:59:13;;;;;;;40.80;27.20;;;;;;;8.34;73.15;98531.55;433585;1268;108855;-40
2022/05/30 23:19:27;;;;;;;38.60;22.70;;;;;;;7.94;73.31;98550.02;433496;1268;97474;-41
2022/05/30 23:29:33;;;;;;;24.60;18.00;;;;;;;8.01;73.75;98549.88;433555;1268;108130;-42
2022/05/30 23:39:41;;;;;;;41.80;27.20;;;;;;;8.09;73.87;98565.70;433613;1268;97903;-39
2022/05/30 23:49:51;;;;;;;39.00;24.30;;;;;;;7.90;74.53;98583.50;433664;1268;111050;-45
2022/05/30 23:59:58;;;;;;;32.50;21.70;;;;;;;7.75;74.60;98582.19;433502;1268;107765;-41
